Time;durP1;ratioP1;P1;durP2;ratioP2;P2;SDS_P1;SDS_P2;PMS_P1;PMS_P2;Temp;Humidity;BMP_temperature;BMP_pressure;BME280_temperature;BME280_humidity;BME280_pressure;Samples;Min_cycle;Max_cycle;Signal;HPM_P1;HPM_P2
2022/11/30 00:11:37;;;;;;;32.15;18.30;;;;;;;;;;6243599;23;20103;-63
2022/11/30 00:14:03;;;;;;;37.88;18.88;;;;;;;;;;6244818;23;20094;-63
2022/11/30 00:16:29;;;;;;;35.72;19.40;;;;;;;;;;6245328;23;20004;-64
2022/11/30 00:18:55;;;;;;;30.20;17.27;;;;;;;;;;6244601;23;20004;-64
2022/11/30 00:21:21;;;;;;;36.15;19.08;;;;;;;;;;6245192;23;20155;-64
2022/11/30 00:23:48;;;;;;;40.05;18.73;;;;;;;;;;6245141;23;20084;-64
2022/11/30 00:26:15;;;;;;;33.35;17.85;;;;;;;;;;6244847;23;20061;-64
2022/11/30 00:28:42;;;;;;;39.95;18.08;;;;;;;;;;6245466;23;20050;-64
2022/11/30 00:31:11;;;;;;;32.13;19.00;;;;;;;;;;6245093;22;19996;-64
2022/11/30 00:33:38;;;;;;;39.67;19.23;;;;;;;;;;6244346;23;20004;-63
2022/11/30 00:36:05;;;;;;;31.83;17.70;;;;;;;;;;6245162;23;20083;-63
2022/11/30 00:38:32;;;;;;;34.78;19.73;;;;;;;;;;6247149;23;20008;-63
2022/11/30 00:40:58;;;;;;;31.33;19.25;;;;;;;;;;6246800;23;20338;-63
2022/11/30 00:43:24;;;;;;;33.13;18.17;;;;;;;;;;6245153;23;20338;-63
2022/11/30 00:45:50;;;;;;;38.53;19.23;;;;;;;;;;6246804;23;20007;-63
2022/11/30 00:48:17;;;;;;;33.90;18.95;;;;;;;;;;6246116;23;20040;-63
2022/11/30 00:50:43;;;;;;;35.25;18.15;;;;;;;;;;6247066;23;20073;-63
2022/11/30 00:53:09;;;;;;;36.53;17.75;;;;;;;;;;6246599;23;20000;-63
2022/11/30 00:55:35;;;;;;;32.50;19.67;;;;;;;;;;6246647;23;20008;-63
2022/11/30 00:58:01;;;;;;;36.22;19.15;;;;;;;;;;6246629;23;20012;-63
2022/11/30 01:00:28;;;;;;;34.15;18.95;;;;;;;;;;6246610;23;20362;-63
2022/11/30 01:02:54;;;;;;;37.65;19.42;;;;;;;;;;6246586;23;20016;-63
2022/11/30 01:05:20;;;;;;;31.70;16.92;;;;;;;;;;6246548;23;20083;-63
2022/11/30 01:07:46;;;;;;;33.75;17.83;;;;;;;;;;6246820;23;20000;-63
2022/11/30 01:10:12;;;;;;;30.50;16.08;;;;;;;;;;6246536;23;20478;-63
2022/11/30 01:12:39;;;;;;;28.10;17.23;;;;;;;;;;6246602;23;20008;-63
2022/11/30 01:15:05;;;;;;;32.97;17.60;;;;;;;;;;6246322;23;20005;-63
2022/11/30 01:17:31;;;;;;;30.73;17.98;;;;;;;;;;6246280;23;20004;-63
2022/11/30 01:19:57;;;;;;;34.13;18.73;;;;;;;;;;6246643;23;20027;-63
2022/11/30 01:22:24;;;;;;;33.28;17.90;;;;;;;;;;6246466;22;20065;-63
2022/11/30 01:24:50;;;;;;;31.48;17.38;;;;;;;;;;6246562;23;20004;-63
2022/11/30 01:27:16;;;;;;;33.55;18.85;;;;;;;;;;6246174;23;20015;-63
2022/11/30 01:29:42;;;;;;;31.60;17.38;;;;;;;;;;6246404;23;19996;-63
2022/11/30 01:32:08;;;;;;;27.08;17.25;;;;;;;;;;6246075;23;20307;-63
2022/11/30 01:34:34;;;;;;;28.83;17.58;;;;;;;;;;6246799;23;20429;-63
2022/11/30 01:37:00;;;;;;;31.58;17.38;;;;;;;;;;6246389;23;20008;-63
2022/11/30 01:39:27;;;;;;;27.95;17.60;;;;;;;;;;6245985;23;20029;-63
2022/11/30 01:41:53;;;;;;;32.08;16.70;;;;;;;;;;6246755;23;20430;-63
2022/11/30 01:44:25;;;;;;;28.75;16.83;;;;;;;;;;6246129;22;20008;-63
2022/11/30 01:46:57;;;;;;;26.83;16.08;;;;;;;;;;6246237;22;20399;-63
2022/11/30 01:49:34;;;;;;;29.30;17.15;;;;;;;;;;6246234;22;20008;-63
2022/11/30 01:52:07;;;;;;;25.50;16.83;;;;;;;;;;6246333;23;20049;-63
2022/11/30 01:54:45;;;;;;;26.33;16.05;;;;;;;;;;6246337;23;20007;-63
2022/11/30 01:57:23;;;;;;;28.65;16.23;;;;;;;;;;6246361;23;20015;-63
2022/11/30 01:59:51;;;;;;;29.25;17.10;;;;;;;;;;6246072;22;20015;-63
2022/11/30 02:02:19;;;;;;;27.70;14.35;;;;;;;;;;6246014;23;20761;-63
2022/11/30 02:04:46;;;;;;;27.58;16.05;;;;;;;;;;6246017;23;20008;-63
2022/11/30 02:07:12;;;;;;;28.38;16.65;;;;;;;;;;6245614;23;20088;-63
2022/11/30 02:09:41;;;;;;;26.38;14.23;;;;;;;;;;6246290;23;20369;-63
2022/11/30 02:12:08;;;;;;;26.23;16.58;;;;;;;;;;6245854;23;20083;-63
2022/11/30 02:14:38;;;;;;;26.58;15.07;;;;;;;;;;6245975;23;20047;-63
2022/11/30 02:17:05;;;;;;;23.63;14.45;;;;;;;;;;6245952;23;20091;-63
2022/11/30 02:19:49;;;;;;;23.40;14.77;;;;;;;;;;6245722;23;20007;-63
2022/11/30 02:22:22;;;;;;;25.08;13.82;;;;;;;;;;6245947;23;20023;-63
2022/11/30 02:24:50;;;;;;;23.92;16.00;;;;;;;;;;6246055;23;20315;-63
2022/11/30 02:27:16;;;;;;;24.98;15.38;;;;;;;;;;6245867;22;20011;-63
2022/11/30 02:29:43;;;;;;;23.80;15.18;;;;;;;;;;6245552;23;20054;-63
2022/11/30 02:32:14;;;;;;;22.02;13.38;;;;;;;;;;6245858;22;19996;-63
2022/11/30 02:34:43;;;;;;;21.13;13.95;;;;;;;;;;6245575;22;20035;-63
2022/11/30 02:37:10;;;;;;;24.00;13.30;;;;;;;;;;6245668;23;20000;-63
2022/11/30 02:39:36;;;;;;;24.90;14.73;;;;;;;;;;6245859;23;20004;-63
2022/11/30 02:42:03;;;;;;;21.45;12.77;;;;;;;;;;6245798;23;20012;-63
2022/11/30 02:44:29;;;;;;;21.38;13.30;;;;;;;;;;6245124;23;20103;-63
2022/11/30 02:47:01;;;;;;;21.33;12.77;;;;;;;;;;6245666;23;20004;-63
2022/11/30 02:49:32;;;;;;;20.05;12.77;;;;;;;;;;6245610;23;20050;-63
2022/11/30 02:51:59;;;;;;;20.30;12.80;;;;;;;;;;6245354;23;20032;-63
2022/11/30 02:54:25;;;;;;;22.20;12.55;;;;;;;;;;6245362;23;20434;-63
2022/11/30 02:56:51;;;;;;;23.27;13.10;;;;;;;;;;6245589;23;20004;-63
2022/11/30 02:59:18;;;;;;;24.35;14.20;;;;;;;;;;6245255;23;20004;-63
2022/11/30 03:01:44;;;;;;;17.60;12.35;;;;;;;;;;6245640;23;20062;-63
2022/11/30 03:04:10;;;;;;;24.52;12.90;;;;;;;;;;6245490;23;20055;-63
2022/11/30 03:06:36;;;;;;;24.00;14.27;;;;;;;;;;6245369;23;20012;-63
2022/11/30 03:09:02;;;;;;;24.10;13.30;;;;;;;;;;6244282;23;20027;-63
2022/11/30 03:11:28;;;;;;;23.40;12.90;;;;;;;;;;6245014;23;20032;-63
2022/11/30 03:13:54;;;;;;;21.33;11.95;;;;;;;;;;6245160;23;20393;-63
2022/11/30 03:16:20;;;;;;;21.00;13.07;;;;;;;;;;6245282;23;20012;-63
2022/11/30 03:18:47;;;;;;;20.23;13.07;;;;;;;;;;6245520;23;20315;-63
2022/11/30 03:21:13;;;;;;;24.92;12.55;;;;;;;;;;6245514;23;20012;-63
2022/11/30 03:23:39;;;;;;;18.42;12.07;;;;;;;;;;6245537;23;20076;-63
2022/11/30 03:26:07;;;;;;;21.95;12.48;;;;;;;;;;6245431;22;20099;-63
2022/11/30 03:28:33;;;;;;;23.08;13.02;;;;;;;;;;6245513;22;20369;-63
2022/11/30 03:30:59;;;;;;;18.55;12.13;;;;;;;;;;6245358;23;20011;-63
2022/11/30 03:33:25;;;;;;;24.27;13.55;;;;;;;;;;6245104;23;20004;-63
2022/11/30 03:36:07;;;;;;;20.10;11.65;;;;;;;;;;6245697;23;20093;-63
2022/11/30 03:38:34;;;;;;;21.92;12.82;;;;;;;;;;6245313;23;20011;-63
2022/11/30 03:41:04;;;;;;;22.15;12.93;;;;;;;;;;6245277;23;20004;-63
2022/11/30 03:43:30;;;;;;;22.42;13.35;;;;;;;;;;6245150;23;20004;-63
2022/11/30 03:45:57;;;;;;;19.38;12.00;;;;;;;;;;6245577;23;20346;-63
2022/11/30 03:48:23;;;;;;;19.70;11.93;;;;;;;;;;6245331;23;20401;-63
2022/11/30 03:50:49;;;;;;;21.25;11.98;;;;;;;;;;6245613;23;20430;-63
2022/11/30 03:53:16;;;;;;;20.23;11.00;;;;;;;;;;6245344;23;20445;-63
2022/11/30 03:55:43;;;;;;;19.15;12.25;;;;;;;;;;6244888;23;20004;-63
2022/11/30 03:58:09;;;;;;;19.65;11.52;;;;;;;;;;6245310;23;20011;-63
2022/11/30 04:00:35;;;;;;;20.73;12.23;;;;;;;;;;6245172;23;20054;-63
2022/11/30 04:03:02;;;;;;;20.80;11.15;;;;;;;;;;6245326;22;20035;-63
2022/11/30 04:05:28;;;;;;;24.65;11.57;;;;;;;;;;6245120;23;20004;-63
2022/11/30 04:07:54;;;;;;;18.90;10.65;;;;;;;;;;6245299;23;20074;-63
2022/11/30 04:10:20;;;;;;;17.05;11.15;;;;;;;;;;6245347;23;20000;-63
2022/11/30 04:12:46;;;;;;;21.67;13.13;;;;;;;;;;6247170;23;20058;-63
2022/11/30 04:15:12;;;;;;;19.38;11.20;;;;;;;;;;6247395;23;20498;-63
2022/11/30 04:17:38;;;;;;;16.73;10.48;;;;;;;;;;6246848;23;20461;-63
2022/11/30 04:20:04;;;;;;;19.27;11.18;;;;;;;;;;6247293;23;20000;-63
2022/11/30 04:22:32;;;;;;;18.25;11.50;;;;;;;;;;6247054;22;20005;-63
2022/11/30 04:24:58;;;;;;;20.33;11.35;;;;;;;;;;6246832;22;20058;-63
2022/11/30 04:27:24;;;;;;;17.17;10.27;;;;;;;;;;6246999;23;20011;-63
2022/11/30 04:29:50;;;;;;;18.80;11.27;;;;;;;;;;6247072;23;20335;-63
2022/11/30 04:32:17;;;;;;;20.08;10.73;;;;;;;;;;6247118;23;20000;-63
2022/11/30 04:34:43;;;;;;;19.45;10.77;;;;;;;;;;6246626;23;20430;-63
2022/11/30 04:37:09;;;;;;;14.30;9.70;;;;;;;;;;6247299;23;20322;-63
2022/11/30 04:39:35;;;;;;;21.13;9.80;;;;;;;;;;6246500;23;20054;-63
2022/11/30 04:42:01;;;;;;;18.90;10.63;;;;;;;;;;6247071;23;20004;-63
2022/11/30 04:44:27;;;;;;;17.10;10.55;;;;;;;;;;6245310;23;20391;-63
2022/11/30 04:46:53;;;;;;;17.67;11.05;;;;;;;;;;6246898;23;20419;-63
2022/11/30 04:49:19;;;;;;;19.73;9.95;;;;;;;;;;6247185;23;20327;-63
2022/11/30 04:51:45;;;;;;;15.50;10.10;;;;;;;;;;6247126;23;20075;-63
2022/11/30 04:54:11;;;;;;;15.65;10.25;;;;;;;;;;6246620;23;20439;-63
2022/11/30 04:56:37;;;;;;;19.73;10.95;;;;;;;;;;6246704;23;20011;-63
2022/11/30 04:59:03;;;;;;;17.77;11.00;;;;;;;;;;6246833;23;20008;-63
2022/11/30 05:01:30;;;;;;;14.25;9.15;;;;;;;;;;6246722;23;20004;-63
2022/11/30 05:03:58;;;;;;;17.85;10.35;;;;;;;;;;6247000;23;20004;-63
2022/11/30 05:06:25;;;;;;;15.45;9.95;;;;;;;;;;6246795;23;20062;-63
2022/11/30 05:08:51;;;;;;;22.05;10.48;;;;;;;;;;6246445;23;19996;-63
2022/11/30 05:11:17;;;;;;;18.67;10.35;;;;;;;;;;6246795;23;20520;-63
2022/11/30 05:13:43;;;;;;;18.08;10.73;;;;;;;;;;6246382;23;20345;-63
2022/11/30 05:16:10;;;;;;;20.75;10.00;;;;;;;;;;6246904;23;20046;-63
2022/11/30 05:18:36;;;;;;;17.80;10.63;;;;;;;;;;6246607;23;20079;-63
2022/11/30 05:21:02;;;;;;;16.73;9.27;;;;;;;;;;6246005;23;20012;-63
2022/11/30 05:23:28;;;;;;;19.65;10.65;;;;;;;;;;6245015;23;20030;-63
2022/11/30 05:25:54;;;;;;;17.63;9.73;;;;;;;;;;6245416;23;20004;-63
2022/11/30 05:28:20;;;;;;;15.25;9.73;;;;;;;;;;6245654;23;20075;-63
2022/11/30 05:30:46;;;;;;;17.67;10.50;;;;;;;;;;6245340;23;20008;-63
2022/11/30 05:33:13;;;;;;;17.17;10.57;;;;;;;;;;6245046;23;20071;-63
2022/11/30 05:35:39;;;;;;;23.30;11.80;;;;;;;;;;6244700;23;20050;-63
2022/11/30 05:38:05;;;;;;;15.88;8.80;;;;;;;;;;6244595;23;20500;-63
2022/11/30 05:40:32;;;;;;;19.95;10.15;;;;;;;;;;6245103;23;20062;-63
2022/11/30 05:42:59;;;;;;;16.70;8.90;;;;;;;;;;6245462;22;20000;-63
2022/11/30 05:45:25;;;;;;;18.10;10.15;;;;;;;;;;6245299;23;20338;-63
2022/11/30 05:47:52;;;;;;;14.15;9.15;;;;;;;;;;6243910;23;20007;-63
2022/11/30 05:50:18;;;;;;;17.33;9.45;;;;;;;;;;6245164;23;20039;-63
2022/11/30 05:52:44;;;;;;;16.02;9.35;;;;;;;;;;6243879;23;20326;-63
2022/11/30 05:55:10;;;;;;;17.13;10.43;;;;;;;;;;6244116;23;20132;-63
2022/11/30 05:57:37;;;;;;;16.02;9.63;;;;;;;;;;6244296;23;20004;-63
2022/11/30 06:00:08;;;;;;;17.90;9.18;;;;;;;;;;6244134;23;20004;-63
2022/11/30 06:02:37;;;;;;;13.60;9.25;;;;;;;;;;6244997;22;20031;-63
2022/11/30 06:05:04;;;;;;;21.27;10.30;;;;;;;;;;6244526;23;20027;-63
2022/11/30 06:07:30;;;;;;;18.38;10.32;;;;;;;;;;6244294;23;20012;-63
2022/11/30 06:09:56;;;;;;;20.42;11.13;;;;;;;;;;6245677;23;20438;-63
2022/11/30 06:12:22;;;;;;;20.77;11.05;;;;;;;;;;6245596;23;20083;-63
2022/11/30 06:14:49;;;;;;;15.75;10.00;;;;;;;;;;6244143;23;20027;-63
2022/11/30 06:17:15;;;;;;;24.98;11.07;;;;;;;;;;6246051;23;20062;-63
2022/11/30 06:19:42;;;;;;;17.98;11.13;;;;;;;;;;6245363;23;20008;-63
2022/11/30 06:22:08;;;;;;;20.65;10.52;;;;;;;;;;6245289;23;20004;-63
2022/11/30 06:24:34;;;;;;;22.05;11.45;;;;;;;;;;6245649;23;20083;-64
2022/11/30 06:27:00;;;;;;;22.45;10.77;;;;;;;;;;6241985;23;20004;-63
2022/11/30 06:29:26;;;;;;;18.10;10.45;;;;;;;;;;6245523;23;20018;-63
2022/11/30 06:31:52;;;;;;;16.40;10.02;;;;;;;;;;6245346;23;20403;-63
2022/11/30 06:34:18;;;;;;;18.95;10.10;;;;;;;;;;6243984;23;20010;-63
2022/11/30 06:36:44;;;;;;;18.25;10.43;;;;;;;;;;6244931;23;20460;-64
2022/11/30 06:39:11;;;;;;;16.85;10.02;;;;;;;;;;6245175;23;20079;-64
2022/11/30 06:41:37;;;;;;;25.63;10.25;;;;;;;;;;6245645;23;20004;-64
2022/11/30 06:44:07;;;;;;;18.63;10.73;;;;;;;;;;6245309;23;20004;-64
2022/11/30 06:46:33;;;;;;;21.30;10.85;;;;;;;;;;6245102;23;20012;-64
2022/11/30 06:48:59;;;;;;;19.52;10.55;;;;;;;;;;6245111;23;20000;-63
2022/11/30 06:51:26;;;;;;;16.60;11.27;;;;;;;;;;6245241;22;20346;-63
2022/11/30 06:53:52;;;;;;;19.55;10.18;;;;;;;;;;6245209;23;19996;-63
2022/11/30 06:56:18;;;;;;;21.88;11.20;;;;;;;;;;6244077;23;20015;-63
2022/11/30 06:58:44;;;;;;;16.58;10.75;;;;;;;;;;6244061;23;20008;-63
2022/11/30 07:01:12;;;;;;;21.08;10.25;;;;;;;;;;6245236;23;20008;-64
2022/11/30 07:03:38;;;;;;;20.88;12.02;;;;;;;;;;6244479;23;20042;-64
2022/11/30 07:06:09;;;;;;;19.75;10.38;;;;;;;;;;6244845;23;20051;-64
2022/11/30 07:08:35;;;;;;;22.45;11.00;;;;;;;;;;6244706;23;20385;-64
2022/11/30 07:11:01;;;;;;;21.65;10.65;;;;;;;;;;6245115;23;20039;-64
2022/11/30 07:13:28;;;;;;;16.15;9.88;;;;;;;;;;6244616;23;20335;-64
2022/11/30 07:15:56;;;;;;;17.13;9.98;;;;;;;;;;6245122;22;20531;-63
2022/11/30 07:18:22;;;;;;;18.80;10.20;;;;;;;;;;6244560;23;20004;-63
2022/11/30 07:20:48;;;;;;;18.38;9.88;;;;;;;;;;6244799;23;20007;-63
2022/11/30 07:26:08;;;;;;;16.30;8.85;;;;;;;;;;6244806;23;20004;-63
2022/11/30 07:28:35;;;;;;;17.02;9.90;;;;;;;;;;6244814;22;20088;-63
2022/11/30 07:31:02;;;;;;;22.70;9.55;;;;;;;;;;6244451;23;20038;-63
2022/11/30 07:33:30;;;;;;;20.77;10.60;;;;;;;;;;6244362;23;20001;-64
2022/11/30 07:35:56;;;;;;;21.08;10.25;;;;;;;;;;6244853;22;20009;-63
2022/11/30 07:38:22;;;;;;;16.90;10.57;;;;;;;;;;6244480;23;20034;-64
2022/11/30 07:40:48;;;;;;;20.05;9.88;;;;;;;;;;6244398;23;20012;-64
2022/11/30 07:43:15;;;;;;;19.88;10.00;;;;;;;;;;6244270;23;20008;-64
2022/11/30 07:45:41;;;;;;;19.95;10.32;;;;;;;;;;6245915;22;20000;-63
2022/11/30 07:48:08;;;;;;;19.77;11.48;;;;;;;;;;6246205;23;20012;-64
2022/11/30 07:50:34;;;;;;;18.65;10.20;;;;;;;;;;6247120;22;20329;-63
2022/11/30 07:53:00;;;;;;;13.90;9.35;;;;;;;;;;6246794;23;20090;-63
2022/11/30 07:55:26;;;;;;;19.50;10.35;;;;;;;;;;6247215;23;20423;-63
2022/11/30 07:57:52;;;;;;;18.80;10.23;;;;;;;;;;6246796;23;20011;-63
2022/11/30 08:00:19;;;;;;;16.90;10.43;;;;;;;;;;6247164;23;20043;-63
2022/11/30 08:02:45;;;;;;;15.93;10.57;;;;;;;;;;6246480;23;20012;-63
2022/11/30 08:05:11;;;;;;;15.40;9.77;;;;;;;;;;6246990;23;20342;-63
2022/11/30 08:07:37;;;;;;;17.73;11.00;;;;;;;;;;6246737;23;20058;-63
2022/11/30 08:10:03;;;;;;;18.15;10.85;;;;;;;;;;6246612;23;20416;-63
2022/11/30 08:12:29;;;;;;;19.40;11.55;;;;;;;;;;6246672;23;20373;-63
2022/11/30 08:14:55;;;;;;;22.75;12.20;;;;;;;;;;6246466;23;20010;-63
2022/11/30 08:17:22;;;;;;;24.45;12.63;;;;;;;;;;6246372;23;20043;-63
2022/11/30 08:19:48;;;;;;;20.23;11.15;;;;;;;;;;6245448;23;20431;-63
2022/11/30 08:22:14;;;;;;;32.63;12.68;;;;;;;;;;6246374;23;20004;-63
2022/11/30 08:24:40;;;;;;;15.18;9.93;;;;;;;;;;6246955;23;20012;-63
2022/11/30 08:27:06;;;;;;;20.25;10.63;;;;;;;;;;6246244;23;20019;-63
2022/11/30 08:29:32;;;;;;;18.23;10.35;;;;;;;;;;6246740;23;20000;-63
2022/11/30 08:31:58;;;;;;;21.13;11.38;;;;;;;;;;6244662;23;20004;-63
2022/11/30 08:34:25;;;;;;;20.05;11.98;;;;;;;;;;6245775;23;20007;-63
2022/11/30 08:36:51;;;;;;;19.30;11.40;;;;;;;;;;6246195;22;20054;-63
2022/11/30 08:39:18;;;;;;;24.10;13.07;;;;;;;;;;6245812;23;20004;-63
2022/11/30 08:41:44;;;;;;;29.65;18.60;;;;;;;;;;6246331;23;20012;-63
2022/11/30 08:44:10;;;;;;;23.70;14.68;;;;;;;;;;6244608;23;20083;-63
2022/11/30 08:46:37;;;;;;;30.92;18.23;;;;;;;;;;6245200;23;20035;-63
2022/11/30 08:49:03;;;;;;;37.42;16.45;;;;;;;;;;6245299;22;20028;-63
2022/11/30 08:51:29;;;;;;;31.88;17.13;;;;;;;;;;6245678;23;20004;-63
2022/11/30 08:53:56;;;;;;;30.52;18.00;;;;;;;;;;6246155;23;20003;-63
2022/11/30 08:56:23;;;;;;;27.67;15.77;;;;;;;;;;6244965;22;20004;-63
2022/11/30 08:58:49;;;;;;;28.52;13.00;;;;;;;;;;6245553;23;20024;-62
2022/11/30 09:01:22;;;;;;;32.97;11.88;;;;;;;;;;6245422;23;20458;-62
2022/11/30 09:03:49;;;;;;;30.63;13.85;;;;;;;;;;6246208;23;20008;-61
2022/11/30 09:06:17;;;;;;;68.55;14.18;;;;;;;;;;6243820;23;20004;-61
2022/11/30 09:08:44;;;;;;;55.70;13.20;;;;;;;;;;6245623;23;20008;-61
2022/11/30 09:11:11;;;;;;;60.05;11.57;;;;;;;;;;6245868;23;20028;-61
2022/11/30 09:13:38;;;;;;;75.63;13.50;;;;;;;;;;6245465;23;20390;-64
2022/11/30 09:16:04;;;;;;;114.95;17.35;;;;;;;;;;6245563;23;20018;-64
2022/11/30 09:18:31;;;;;;;72.22;15.27;;;;;;;;;;6244971;23;20055;-64
2022/11/30 09:21:08;;;;;;;83.07;13.30;;;;;;;;;;6245573;23;20015;-64
2022/11/30 09:23:34;;;;;;;123.55;15.02;;;;;;;;;;6245492;23;20009;-64
2022/11/30 09:26:01;;;;;;;141.50;16.65;;;;;;;;;;6245638;23;20000;-64
2022/11/30 09:28:31;;;;;;;85.85;13.15;;;;;;;;;;6245055;22;20300;-64
2022/11/30 09:31:17;;;;;;;56.42;10.95;;;;;;;;;;6245242;23;19996;-64
2022/11/30 09:33:43;;;;;;;63.40;10.93;;;;;;;;;;6245260;23;20049;-64
2022/11/30 09:36:11;;;;;;;66.50;9.95;;;;;;;;;;6244917;23;20422;-64
2022/11/30 09:38:37;;;;;;;59.42;11.13;;;;;;;;;;6245131;23;20008;-64
2022/11/30 09:41:12;;;;;;;90.13;11.80;;;;;;;;;;6245482;23;20381;-64
2022/11/30 09:43:55;;;;;;;46.83;11.45;;;;;;;;;;6245083;23;20008;-64
2022/11/30 09:46:25;;;;;;;47.97;12.07;;;;;;;;;;6244699;23;20327;-64
2022/11/30 09:49:01;;;;;;;79.43;13.68;;;;;;;;;;6245321;23;20083;-64
2022/11/30 09:51:31;;;;;;;75.45;12.48;;;;;;;;;;6245211;23;20012;-64
2022/11/30 09:54:00;;;;;;;66.35;11.77;;;;;;;;;;6245106;23;20000;-63
2022/11/30 09:56:29;;;;;;;67.15;12.02;;;;;;;;;;6245120;22;20447;-63
2022/11/30 09:59:06;;;;;;;56.78;11.10;;;;;;;;;;6244590;22;20017;-63
2022/11/30 10:01:33;;;;;;;92.38;14.20;;;;;;;;;;6245157;23;20015;-63
2022/11/30 10:04:00;;;;;;;76.50;13.80;;;;;;;;;;6245700;22;20327;-63
2022/11/30 10:06:32;;;;;;;83.05;13.05;;;;;;;;;;6244774;23;20091;-63
2022/11/30 10:09:04;;;;;;;106.60;15.65;;;;;;;;;;6245015;23;20004;-63
2022/11/30 10:11:49;;;;;;;64.70;16.00;;;;;;;;;;6244942;23;20319;-63
2022/11/30 10:14:33;;;;;;;72.43;15.75;;;;;;;;;;6244280;23;20012;-63
2022/11/30 10:17:02;;;;;;;47.42;17.45;;;;;;;;;;6244582;23;20004;-63
2022/11/30 10:19:47;;;;;;;63.40;18.55;;;;;;;;;;6244517;23;20011;-63
2022/11/30 10:22:28;;;;;;;61.67;16.77;;;;;;;;;;6244542;23;20090;-63
2022/11/30 10:25:00;;;;;;;70.88;17.38;;;;;;;;;;6244712;23;20012;-63
2022/11/30 10:27:39;;;;;;;95.75;21.30;;;;;;;;;;6243748;23;20465;-63
2022/11/30 10:30:16;;;;;;;82.28;16.35;;;;;;;;;;6244782;23;20075;-63
2022/11/30 10:32:44;;;;;;;35.03;14.55;;;;;;;;;;6244261;23;20004;-63
2022/11/30 10:35:20;;;;;;;78.68;21.95;;;;;;;;;;6244839;23;20000;-63
2022/11/30 10:37:46;;;;;;;49.35;16.75;;;;;;;;;;6244151;23;20441;-63
2022/11/30 10:40:18;;;;;;;82.05;28.80;;;;;;;;;;6243146;23;20000;-63
2022/11/30 10:42:49;;;;;;;79.68;37.38;;;;;;;;;;6243926;23;20091;-63
2022/11/30 10:45:22;;;;;;;70.80;23.95;;;;;;;;;;6244599;23;20071;-63
2022/11/30 10:47:52;;;;;;;75.43;36.03;;;;;;;;;;6244769;23;20007;-63
2022/11/30 10:50:24;;;;;;;71.45;28.98;;;;;;;;;;6244345;23;20139;-63
2022/11/30 10:52:51;;;;;;;58.03;23.40;;;;;;;;;;6244642;23;20008;-63
2022/11/30 10:55:19;;;;;;;61.03;20.98;;;;;;;;;;6243776;23;20000;-64
2022/11/30 10:57:46;;;;;;;43.92;18.02;;;;;;;;;;6243304;23;20011;-64
2022/11/30 11:00:14;;;;;;;41.60;16.88;;;;;;;;;;6244508;23;19996;-64
2022/11/30 11:02:45;;;;;;;38.50;17.10;;;;;;;;;;6244049;22;20004;-64
2022/11/30 11:05:20;;;;;;;50.60;17.48;;;;;;;;;;6244304;23;20007;-64
2022/11/30 11:07:51;;;;;;;44.15;17.15;;;;;;;;;;6244443;23;20018;-64
2022/11/30 11:10:19;;;;;;;43.17;18.00;;;;;;;;;;6243461;23;20000;-64
2022/11/30 11:12:48;;;;;;;41.63;18.35;;;;;;;;;;6242748;23;20016;-64
2022/11/30 11:15:17;;;;;;;39.30;16.67;;;;;;;;;;6243870;22;20012;-63
2022/11/30 11:17:43;;;;;;;48.30;16.10;;;;;;;;;;6243968;23;20034;-62
2022/11/30 11:20:37;;;;;;;40.20;16.38;;;;;;;;;;6244291;23;20000;-62
2022/11/30 11:23:04;;;;;;;35.20;15.05;;;;;;;;;;6240613;22;20447;-65
2022/11/30 11:25:33;;;;;;;38.83;17.20;;;;;;;;;;6243133;22;20011;-65
2022/11/30 11:28:21;;;;;;;37.88;16.55;;;;;;;;;;6244178;23;20008;-65
2022/11/30 11:30:48;;;;;;;42.97;17.58;;;;;;;;;;6243134;22;20078;-65
2022/11/30 11:33:14;;;;;;;64.78;27.05;;;;;;;;;;6243069;23;20465;-64
2022/11/30 11:35:51;;;;;;;40.60;18.00;;;;;;;;;;6243619;22;20039;-66
2022/11/30 11:38:26;;;;;;;42.30;18.17;;;;;;;;;;6242910;22;20012;-65
2022/11/30 11:41:02;;;;;;;35.08;16.52;;;;;;;;;;6242310;23;20327;-65
2022/11/30 11:43:30;;;;;;;35.97;16.65;;;;;;;;;;6241470;23;20334;-65
2022/11/30 11:46:01;;;;;;;35.03;14.82;;;;;;;;;;6243023;23;20395;-65
2022/11/30 11:48:38;;;;;;;36.03;16.10;;;;;;;;;;6243410;23;20027;-65
2022/11/30 11:51:06;;;;;;;35.28;15.00;;;;;;;;;;6242525;23;20014;-65
2022/11/30 11:53:44;;;;;;;34.70;16.08;;;;;;;;;;6242475;23;19996;-65
2022/11/30 11:56:10;;;;;;;33.85;15.85;;;;;;;;;;6243271;22;20012;-65
2022/11/30 11:59:09;;;;;;;35.28;15.77;;;;;;;;;;6242127;23;20020;-66
2022/11/30 12:01:35;;;;;;;32.72;13.25;;;;;;;;;;6120293;23;20017;-65
2022/11/30 12:04:10;;;;;;;33.30;14.85;;;;;;;;;;6096658;23;20016;-65
2022/11/30 12:06:36;;;;;;;34.28;14.25;;;;;;;;;;6120817;23;20739;-65
2022/11/30 12:09:06;;;;;;;32.47;15.05;;;;;;;;;;6120946;23;20069;-65
2022/11/30 12:11:43;;;;;;;33.15;14.43;;;;;;;;;;6121496;23;20049;-65
2022/11/30 12:14:11;;;;;;;49.13;23.48;;;;;;;;;;6121346;23;20101;-65
2022/11/30 12:16:43;;;;;;;33.65;17.40;;;;;;;;;;6121757;23;20109;-65
2022/11/30 12:19:12;;;;;;;27.20;13.90;;;;;;;;;;6120997;23;20045;-64
2022/11/30 12:21:47;;;;;;;40.78;18.02;;;;;;;;;;6121708;23;20014;-63
2022/11/30 12:24:22;;;;;;;34.60;15.90;;;;;;;;;;6120719;23;20109;-66
2022/11/30 12:26:53;;;;;;;37.78;16.77;;;;;;;;;;6096514;23;20088;-65
2022/11/30 12:29:23;;;;;;;41.80;19.92;;;;;;;;;;6121634;23;20006;-65
2022/11/30 12:32:08;;;;;;;44.05;17.90;;;;;;;;;;6122244;23;20010;-65
2022/11/30 12:34:34;;;;;;;38.95;17.23;;;;;;;;;;6123471;23;20010;-65
2022/11/30 12:37:20;;;;;;;40.30;17.35;;;;;;;;;;6160424;23;20008;-65
2022/11/30 12:39:54;;;;;;;39.33;16.42;;;;;;;;;;6245678;23;20008;-65
2022/11/30 12:42:23;;;;;;;42.38;17.52;;;;;;;;;;6245306;23;20008;-64
2022/11/30 12:44:55;;;;;;;46.22;20.15;;;;;;;;;;6244550;23;20099;-63
2022/11/30 12:47:28;;;;;;;35.80;18.42;;;;;;;;;;6245204;23;20442;-63
2022/11/30 12:50:12;;;;;;;39.17;18.17;;;;;;;;;;6245420;23;20012;-63
2022/11/30 12:52:44;;;;;;;38.70;16.08;;;;;;;;;;6245485;23;20103;-63
2022/11/30 12:55:29;;;;;;;44.67;18.87;;;;;;;;;;6245439;23;20039;-63
2022/11/30 12:57:59;;;;;;;32.17;14.73;;;;;;;;;;6242387;23;20008;-64
2022/11/30 13:00:28;;;;;;;32.25;15.05;;;;;;;;;;6245590;23;20516;-63
2022/11/30 13:03:02;;;;;;;36.80;17.70;;;;;;;;;;6245201;22;20001;-63
2022/11/30 13:05:37;;;;;;;37.55;16.40;;;;;;;;;;6245168;23;20034;-63
2022/11/30 13:08:11;;;;;;;30.95;13.57;;;;;;;;;;6244991;23;20000;-63
2022/11/30 13:10:37;;;;;;;31.33;15.55;;;;;;;;;;6245121;23;20004;-63
2022/11/30 13:13:04;;;;;;;36.35;15.25;;;;;;;;;;6244848;23;20016;-63
2022/11/30 13:15:32;;;;;;;46.75;20.80;;;;;;;;;;6245734;23;20006;-63
2022/11/30 13:18:00;;;;;;;43.05;17.65;;;;;;;;;;6245348;23;20000;-63
2022/11/30 13:20:42;;;;;;;40.28;18.85;;;;;;;;;;6244534;23;20433;-63
2022/11/30 13:23:13;;;;;;;40.45;18.35;;;;;;;;;;6245808;22;20334;-63
2022/11/30 13:25:46;;;;;;;42.22;18.80;;;;;;;;;;6245271;23;20299;-63
2022/11/30 13:28:35;;;;;;;44.67;20.05;;;;;;;;;;6245306;23;20004;-63
2022/11/30 13:31:10;;;;;;;38.47;16.90;;;;;;;;;;6245240;22;20008;-63
2022/11/30 13:33:37;;;;;;;38.75;17.77;;;;;;;;;;6245360;23;20007;-63
2022/11/30 13:36:04;;;;;;;37.10;16.70;;;;;;;;;;6245055;23;20126;-63
2022/11/30 13:38:30;;;;;;;34.03;15.40;;;;;;;;;;6245175;23;20556;-63
2022/11/30 13:41:02;;;;;;;34.25;15.23;;;;;;;;;;6245540;23;20075;-63
2022/11/30 13:43:29;;;;;;;31.08;13.65;;;;;;;;;;6244958;23;20074;-63
2022/11/30 13:46:02;;;;;;;30.15;14.90;;;;;;;;;;6243735;23;20346;-64
2022/11/30 13:48:32;;;;;;;31.75;13.98;;;;;;;;;;6245077;23;20458;-63
2022/11/30 13:50:58;;;;;;;24.45;12.70;;;;;;;;;;6245034;22;20111;-63
2022/11/30 13:53:26;;;;;;;29.23;14.68;;;;;;;;;;6244427;23;20107;-63
2022/11/30 13:55:56;;;;;;;36.05;15.70;;;;;;;;;;6245489;23;20027;-63
2022/11/30 13:58:23;;;;;;;36.72;16.73;;;;;;;;;;6244763;23;20475;-63
2022/11/30 14:01:25;;;;;;;47.45;18.73;;;;;;;;;;6244738;23;20004;-63
2022/11/30 14:04:23;;;;;;;35.22;15.75;;;;;;;;;;6122759;23;20014;-63
2022/11/30 14:06:51;;;;;;;38.38;16.35;;;;;;;;;;6063668;23;20011;-63
2022/11/30 14:09:36;;;;;;;38.60;14.68;;;;;;;;;;6063924;23;20430;-64
2022/11/30 14:12:20;;;;;;;36.78;16.27;;;;;;;;;;6063355;23;20015;-65
2022/11/30 14:14:47;;;;;;;35.88;15.52;;;;;;;;;;6064003;23;20089;-64
2022/11/30 14:17:15;;;;;;;37.55;17.52;;;;;;;;;;6063010;23;20015;-64
2022/11/30 14:19:46;;;;;;;36.92;16.80;;;;;;;;;;6062995;23;20018;-64
2022/11/30 14:22:13;;;;;;;40.35;18.17;;;;;;;;;;6062983;23;20015;-64
2022/11/30 14:24:40;;;;;;;48.85;22.23;;;;;;;;;;6063318;23;20394;-63
2022/11/30 14:27:07;;;;;;;34.90;16.92;;;;;;;;;;6063816;23;20018;-63
2022/11/30 14:29:35;;;;;;;35.22;16.83;;;;;;;;;;6064272;23;20530;-64
2022/11/30 14:32:10;;;;;;;34.45;17.33;;;;;;;;;;6040095;23;20389;-64
2022/11/30 14:34:37;;;;;;;33.95;16.15;;;;;;;;;;6064083;23;20468;-64
2022/11/30 14:37:11;;;;;;;39.03;19.17;;;;;;;;;;6080501;23;20017;-64
2022/11/30 14:39:41;;;;;;;33.63;17.63;;;;;;;;;;6151906;23;20118;-62
2022/11/30 14:42:21;;;;;;;41.35;19.33;;;;;;;;;;6187921;23;20086;-62